Welcome!

Visit our other weather sites:

Template documentation
and downloads

And another site



There are no active watches, warnings or advisories

Select another period ( hide this area )

Units Period Custom range Directly to
Metric English Both
Daily Weekly Monthly Yearly
use both date-selectors for a custom range
previous Day
With this date

WeatherUnderground graphs for this period ( click here )


Daily Summary for Sunday Aug 18 2019
Time Temp. ( °C ) Dew pt. ( °C ) Wind ( km/h ) from Gust ( km/h ) Pressure ( hPa ) Humid.( % ) Rainrate ( cm )
High25,8 22,2 32,2 North ( 329/1982 ) 41,8 1011,4 93 -
Average22,5 19,1 11,4 ENE #43/281 17,4 1005,6 82 -
Low18,8 16,5 -   3,1 1000,2 71 -
Daily Tabular details for Sunday Aug 18 2019
Time Temp. ( °C ) Dew pt. ( °C ) Wind ( km/h ) from Gust ( km/h ) Pressure ( hPa ) Humid.( % ) Rainrate ( cm )
00:00 25,2 22,1 9,7 SSE 19,3 1001,9 83 -
00:05 25,1 22,0 9,7 South 12,9 1001,9 83 -
00:10 25,0 22,1 8,0 South 11,3 1001,9 84 -
00:15 25,1 22,2 4,8 South 14,5 1001,6 84 -
00:20 25,0 22,1 9,7 SSE 14,5 1001,2 84 -
00:25 24,8 21,9 3,2 SSE 12,9 1001,2 84 -
00:30 24,8 22,1   Calm 4,8 1001,2 85 -
00:35 24,8 22,1   Calm 4,8 1001,2 85 -
00:40 24,8 22,2 4,8 SSE 6,4 1000,9 85 -
00:45 24,9 22,1 11,3 South 12,9 1000,9 84 -
00:50 24,9 22,0 9,7 SSE 12,9 1000,6 84 -
00:55 24,8 22,1 8,0 SSE 12,9 1000,6 85 -
01:00 24,8 22,1 8,0 SSE 9,7 1000,2 85 -
01:05 24,7 22,1 8,0 SSE 9,7 1000,2 85 -
01:10 24,6 21,8 4,8 SSE 9,7 1000,2 85 -
01:15 24,3 21,8 8,0 SSE 12,9 1000,2 86 -
01:20 24,1 21,8 4,8 SSE 8,0 1000,2 87 -
01:25 24,0 21,7 3,2 SSE 6,4 1000,2 87 -
01:30 23,9 21,8 3,2 SSE 6,4 1000,6 88 -
01:35 23,9 21,8 4,8 SE 6,4 1000,6 88 -
01:40 23,9 22,0 4,8 SE 6,4 1000,2 89 -
01:45 23,9 21,9 4,8 SE 8,0 1000,2 89 -
01:50 23,8 21,9 3,2 SE 6,4 1000,2 89 -
01:55 23,8 21,9 4,8 SE 6,4 1000,2 89 -
02:00 23,8 21,9 4,8 SE 6,4 1000,2 89 -
02:05 23,8 21,8 4,8 SE 6,4 1000,2 89 -
02:10 23,7 21,8 3,2 SE 6,4 1000,6 89 -
02:15 23,7 21,9 9,7 SE 12,9 1000,6 90 -
02:20 23,4 21,7 4,8 SSE 12,9 1000,6 90 -
02:25 23,2 21,7 8,0 SSE 9,7 1000,9 91 -
02:30 23,1 21,7 9,7 SSE 9,7 1001,2 92 -
02:35 23,1 21,9 4,8 SSE 9,7 1001,2 93 -
02:40 23,0 21,8 1,6 SSE 6,4 1001,2 93 -
02:45 23,1 21,9 4,8 SSE 6,4 1001,6 93 -
02:50 23,1 21,8 3,2 SSE 8,0 1001,6 93 -
02:55 22,9 21,7 9,7 SSE 11,3 1002,3 93 -
03:00 22,7 21,5 9,7 South 16,1 1001,9 93 -
03:05 22,9 21,3 11,3 SSW 16,1 1001,9 91 -
03:10 23,3 21,2 9,7 SW 12,9 1001,9 88 -
03:15 23,4 20,9 11,3 WSW 20,9 1001,9 86 -
03:20 23,6 20,7 14,8 WSW 11,6 1001,9 84 -
03:25 23,6 20,5 22,5 West 25,7 1002,3 83 -
03:30 23,6 20,1 19,3 West 25,7 1001,9 81 -
03:35 23,4 20,0 19,3 West 25,7 1001,9 81 -
03:40 23,4 20,1 14,5 West 22,5 1001,9 82 -
03:45 23,2 19,9 12,9 WSW 20,9 1002,3 82 -
03:50 22,8 19,8 14,5 SSW 20,9 1002,3 83 -
03:55 22,7 19,4 12,9 SSW 19,3 1001,9 82 -
04:00 22,7 19,3 12,9 SW 19,3 1002,3 81 -
04:05 22,7 19,3 16,1 WSW 20,9 1002,3 81 -
04:10 22,7 19,2 12,9 WSW 19,3 1002,6 81 -
04:15 22,5 19,3 11,3 WSW 19,3 1002,6 82 -
04:20 22,4 19,2 11,3 WSW 16,1 1002,6 82 -
04:25 22,3 19,1 9,7 SW 16,1 1002,3 82 -
04:30 22,3 18,8 11,3 SW 16,1 1002,3 81 -
04:35 22,2 18,8 11,3 West 14,5 1002,6 81 -
04:40 22,0 18,6 11,3 West 10,9 1002,6 81 -
04:45 21,8 18,6 9,7 WNW 14,5 1002,6 82 -
04:50 21,6 18,4 3,2 WSW 11,3 1002,6 82 -
04:55 21,5 18,3 4,8 SW 8,0 1002,6 82 -
05:00 21,5 18,3 4,8 SW 8,0 1002,6 82 -
05:05 21,5 18,3 9,7 SW 9,7 1002,6 82 -
05:10 21,3 18,3 4,8 SSW 9,7 1002,6 83 -
05:15 21,2 18,2 8,0 SW 8,0 1002,9 83 -
05:20 21,1 18,1 9,7 WSW 11,3 1002,9 83 -
05:25 21,1 18,2 8,0 West 11,3 1002,9 84 -
05:30 21,2 18,6 8,0 West 11,3 1002,9 85 -
05:35 21,3 19,1 9,7 WNW 12,9 1003,3 87 -
05:40 21,4 19,4 16,1 NW 20,9 1003,3 88 -
05:45 21,3 19,3 16,1 North 25,7 1003,6 88 -
05:50 21,2 19,1 19,3 North 25,7 1003,6 88 -
05:55 20,9 18,9 16,1 North 25,7 1003,9 88 -
06:00 20,8 18,7 16,1 North 22,5 1004,3 88 -
06:05 20,7 18,7 12,9 North 22,5 1004,6 88 -
06:10 20,6 18,7 14,5 North 19,3 1004,6 89 -
06:15 20,5 18,4 24,1 NNW 29,0 1004,6 88 -
06:20 20,3 18,3 24,1 NNW 32,2 1004,3 88 -
06:25 20,2 18,1 22,5 NNW 32,2 1004,3 88 -
06:30 20,1 18,0 16,1 NNW 32,2 1005,0 88 -
06:35 19,9 17,9 8,0 NW 25,7 1005,3 88 -
06:40 19,8 17,8 14,5 NNW 20,9 1005,0 88 -
06:45 19,7 17,5 14,5 North 24,1 1005,3 87 -
06:50 19,7 17,3 11,3 NNW 19,3 1006,0 86 -
06:55 19,7 17,4 14,5 NNW 20,9 1005,6 87 -
07:00 19,6 17,4 14,5 NNW 22,5 1005,6 87 -
07:05 19,5 17,3 12,9 NW 22,5 1006,0 87 -
07:10 19,4 17,2 16,1 NW 20,9 1006,3 87 -
07:15 19,3 17,1 14,5 NW 20,9 1006,7 87 -
07:20 19,2 17,0 12,9 WNW 20,9 1007,0 87 -
07:25 19,1 16,9 14,5 WNW 20,9 1007,0 87 -
07:30 19,1 16,8 12,9 WNW 19,3 1007,3 87 -
07:35 18,9 16,7 12,9 WNW 22,5 1007,7 87 -
07:40 18,9 16,7 12,9 WNW 22,5 1007,7 87 -
07:45 18,9 16,7 14,5 WNW 20,9 1007,7 87 -
07:50 18,9 16,7 14,5 NW 20,9 1007,7 87 -
07:55 18,9 16,7 14,5 NW 22,5 1007,7 87 -
08:00 18,9 16,7 12,9 NW 22,5 1008,0 87 -
08:05 18,8 16,6 12,9 NW 22,5 1008,0 87 -
08:10 18,8 16,6 14,5 NW 22,5 1008,0 87 -
08:15 18,8 16,6 11,3 NW 22,5 1008,0 87 -
08:20 18,8 16,6 14,5 NW 20,9 1008,4 87 -
08:25 18,9 16,5 19,3 NNW 25,7 1008,0 86 -
08:30 19,1 16,7 14,5 NW 19,3 1008,7 86 -
08:35 19,1 16,6 14,5 NW 24,1 1008,7 85 -
08:40 19,3 16,7 12,9 NNW 22,5 1008,4 85 -
08:45 19,4 16,7 19,3 NNW 29,0 1008,0 84 -
08:50 19,4 16,7 16,1 NNW 24,1 1008,4 84 -
08:55 19,5 16,7 20,9 NNW 29,0 1008,4 84 -
09:00 19,6 16,8 20,9 NNW 29,0 1008,7 84 -
09:05 19,7 16,9 20,9 NNW 29,0 1009,0 84 -
09:10 19,7 16,9 24,1 NNW 32,2 1009,0 84 -
09:15 19,6 16,8 24,1 NNW 32,2 1009,0 84 -
09:20 19,7 16,9 19,3 North 29,0 1009,0 84 -
09:25 19,7 16,6 32,2 North 41,8 1009,0 82 -
09:30 19,7 16,8 20,9 North 33,8 1009,0 83 -
09:35 19,8 16,7 25,7 North 35,4 1009,0 82 -
09:40 19,8 16,7 19,3 North 35,4 1009,0 82 -
09:45 19,9 16,7 16,1 North 32,2 1009,0 82 -
09:50 20,0 16,7 25,7 NNW 33,8 1009,0 81 -
09:55 20,3 16,9 19,3 North 33,8 1009,0 81 -
10:00 20,4 17,1 16,1 NNE 27,4 1009,0 81 -
10:05 20,4 17,0 22,5 North 32,2 1009,4 81 -
10:10 20,5 16,9 22,5 North 29,0 1009,4 80 -
10:15 20,6 17,1 19,3 NNW 32,2 1009,0 80 -
10:20 20,6 17,2 16,1 NNW 25,7 1009,4 81 -
10:25 21,0 17,4 14,5 North 22,5 1009,4 80 -
10:30 21,3 17,7 14,5 NNE 22,5 1009,4 80 -
10:35 21,2 17,4 14,5 NNE 29,0 1009,4 79 -
10:40 21,2 17,2 22,5 North 29,0 1009,4 78 -
10:45 21,2 17,4 20,9 North 32,2 1009,7 79 -
10:50 21,3 17,6 20,9 North 29,0 1009,7 79 -
10:55 21,6 17,6 20,9 NNE 32,2 1009,7 78 -
11:00 21,4 17,4 20,9 North 32,2 1009,7 78 -
11:05 21,6 17,8 12,9 North 25,7 1009,7 79 -
11:10 21,7 17,7 19,3 NNE 27,4 1010,0 78 -
11:15 21,4 17,6 20,9 NNE 32,2 1010,0 79 -
11:20 21,6 17,6 20,9 NNE 27,4 1010,0 78 -
11:25 21,7 17,7 16,1 NNE 27,4 1010,0 78 -
11:30 22,0 18,2 16,1 NNE 25,7 1010,0 79 -
11:35 22,1 18,0 12,9 NNE 25,7 1010,0 78 -
11:40 21,6 17,6 16,1 NNE 22,5 1010,4 78 -
11:45 21,4 17,4 14,5 NNE 22,5 1010,4 78 -
11:50 21,6 17,6 16,1 NNE 25,7 1010,4 78 -
11:55 21,6 17,6 14,5 NNE 22,5 1010,4 78 -
12:00 22,1 18,1 14,5 NE 20,9 1010,4 78 -
12:05 22,1 18,0 16,1 NE 20,9 1010,4 78 -
12:10 22,2 18,2 16,1 ENE 22,5 1010,4 78 -
12:15 22,1 18,1 12,9 NE 22,5 1010,0 78 -
12:20 22,2 18,2 12,9 NE 19,3 1010,4 78 -
12:25 22,2 18,0 14,5 NE 19,3 1010,4 77 -
12:30 22,7 18,6 12,9 NE 19,3 1010,4 78 -
12:35 22,4 17,9 12,9 NE 24,1 1010,0 76 -
12:40 22,4 18,4 16,1 NE 22,5 1010,4 78 -
12:45 22,7 18,3 11,3 NE 20,9 1010,0 76 -
12:50 22,6 18,1 12,9 NE 19,3 1010,0 76 -
12:55 22,9 18,9 12,9 NE 19,3 1010,0 78 -
13:00 22,8 18,6 11,3 NE 19,3 1010,0 77 -
13:05 22,7 18,2 11,3 NE 19,3 1010,0 76 -
13:10 22,8 18,8 8,0 NNE 17,7 1010,0 78 -
13:15 23,2 19,2 9,7 NNE 12,9 1010,0 78 -
13:20 23,2 18,5 11,3 NE 14,5 1010,0 75 -
13:25 23,1 18,8 12,9 NNE 19,3 1010,0 77 -
13:30 23,3 19,3 8,0 NNE 19,3 1010,0 78 -
13:35 23,2 18,9 12,9 NNE 16,1 1009,7 77 -
13:40 23,2 18,9 11,3 NNE 16,1 1009,7 77 -
13:45 23,2 18,8 9,7 NE 16,1 1009,7 76 -
13:50 23,2 18,7 4,8 NE 16,1 1009,7 76 -
13:55 23,3 18,7 4,8 ENE 16,1 1009,7 75 -
14:00 23,5 19,0 4,8 NE 11,3 1009,7 76 -
14:05 23,5 19,1 12,9 NNE 16,1 1009,7 76 -
14:10 23,3 18,8 9,7 NNE 16,1 1009,7 76 -
14:15 23,7 19,2 11,3 NNE 14,5 1009,7 76 -
14:20 23,6 19,1 4,8 North 12,9 1009,7 76 -
14:25 23,8 19,3 3,2 NNW 9,7 1009,7 76 -
14:30 24,1 19,2 8,0 WNW 11,3 1010,0 74 -
14:35 23,9 19,3 3,2 NNW 9,7 1009,7 75 -
14:40 24,2 19,2 3,2 North 6,4 1010,0 74 -
14:45 24,1 19,4 8,0 NW 9,7 1010,0 75 -
14:50 24,3 19,8 3,2 WSW 8,0 1009,7 76 -
14:55 24,2 19,2 3,2 West 12,9 1009,7 74 -
15:00 24,7 19,6 11,3 WNW 14,5 1009,7 73 -
15:05 24,7 19,5 9,7 NW 16,1 1009,7 73 -
15:10 24,7 19,7 11,3 NW 16,1 1009,7 74 -
15:15 24,7 19,8 8,0 WNW 12,9 1009,7 74 -
15:20 24,9 19,6 3,2 WNW 11,3 1009,7 72 -
15:25 25,1 19,9 4,8 NNW 9,7 1009,7 73 -
15:30 24,8 19,8 4,8 North 16,1 1009,7 74 -
15:35 25,1 19,7 9,7 WNW 16,1 1009,7 72 -
15:40 25,2 20,3 4,8 West 14,5 1009,4 74 -
15:45 25,5 19,9 3,2 WNW 19,3 1009,4 71 -
15:50 25,8 20,3 9,7 WNW 16,1 1009,4 72 -
15:55 25,5 20,1 12,9 WNW 16,1 1009,4 72 -
16:00 25,7 20,4 8,0 NW 19,3 1009,4 73 -
16:05 25,6 19,9 8,0 WNW 11,3 1009,4 71 -
16:10 25,3 19,9 8,0 WNW 11,3 1009,4 72 -
16:15 25,2 20,5 8,0 NW 16,1 1009,4 75 -
16:20 25,3 20,2 3,2 NNW 11,3 1009,4 73 -
16:25 25,2 19,8 11,3 North 14,5 1009,0 72 -
16:30 25,2 20,4 8,0 NNW 14,5 1009,0 75 -
16:35 24,9 20,0 8,0 NNW 12,9 1009,0 74 -
16:40 24,9 20,2 3,2 NNW 12,9 1009,0 75 -
16:45 25,1 20,3 8,0 North 12,9 1009,0 75 -
16:50 25,4 20,4 8,0 North 12,9 1009,0 74 -
16:55 25,4 20,7 8,0 North 14,5 1009,0 75 -
17:00 25,4 20,4 11,3 North 14,5 1009,0 74 -
17:05 25,3 20,3 11,3 North 19,3 1009,0 74 -
17:10 25,2 20,1 9,7 NNE 14,5 1009,0 73 -
17:15 25,2 20,1 8,0 NNE 14,5 1009,0 73 -
17:20 25,3 20,2 8,0 North 12,9 1009,0 73 -
17:25 25,5 20,6 11,3 North 16,1 1009,0 74 -
17:30 25,4 20,7 8,0 North 16,1 1009,0 75 -
17:35 25,4 20,3 8,0 North 12,9 1009,0 73 -
17:40 25,7 20,7 8,0 NNW 11,3 1009,0 74 -
17:45 25,8 20,6 6,4 NNW 3,1 1009,0 73 -
17:50 25,6 20,4 4,8 NNW 9,7 1009,0 73 -
17:55 25,7 20,4 3,2 North 9,7 1009,0 73 -
18:00 25,4 20,3 4,8 NNE 11,3 1009,0 73 -
18:05 25,3 20,4 3,2 NE 11,3 1009,0 74 -
18:10 25,4 20,7 4,8 NNE 9,7 1009,0 75 -
18:15 25,5 20,6 3,2 NNE 8,0 1009,0 74 -
18:20 25,5 20,7 8,0 NE 9,7 1009,0 75 -
18:25 25,4 20,2 9,7 ENE 12,9 1009,0 73 -
18:30 25,4 20,2 9,7 ENE 12,9 1009,0 73 -
18:35 25,3 20,6 4,8 ENE 11,3 1008,7 75 -
18:40 25,3 20,1 8,0 NE 9,7 1009,0 73 -
18:45 25,3 20,3 3,2 NE 9,7 1009,0 74 -
18:50 25,3 20,2 4,8 NE 8,0 1009,0 73 -
18:55 25,3 20,3 8,0 NE 9,7 1009,0 74 -
19:00 25,2 20,5 8,0 NE 9,7 1009,0 75 -
19:05 25,2 20,6 9,7 NE 12,9 1009,0 76 -
19:10 25,1 20,6 11,1 ENE 8,4 1009,0 76 -
19:15 24,9 20,7 4,8 ENE 12,9 1009,0 77 -
19:20 24,9 20,6 8,0 ENE 11,3 1009,0 77 -
19:25 24,8 20,3 8,0 ENE 14,5 1009,0 76 -
19:30 24,7 20,3 11,3 ENE 14,5 1009,0 77 -
19:35 24,6 20,2 9,7 ENE 12,9 1009,0 77 -
19:40 24,3 20,5 11,3 ENE 14,5 1009,0 79 -
19:45 24,1 20,4 9,7 ENE 16,1 1009,0 80 -
19:50 23,8 20,2 11,3 ENE 14,5 1009,0 80 -
19:55 23,6 20,0 12,9 ENE 16,1 1009,4 80 -
20:01 23,4 19,9 16,7 East 13,4 1009,4 81 -
20:05 23,3 19,8 9,7 ENE 16,1 1009,4 81 -
20:10 23,1 19,8 11,3 ENE 12,9 1009,4 82 -
20:15 22,9 19,9 11,3 ENE 14,5 1009,4 83 -
20:20 22,8 19,7 11,3 East 19,3 1009,4 83 -
20:25 22,7 19,7 12,9 East 16,1 1009,4 83 -
20:30 22,6 19,6 12,9 East 16,1 1009,4 83 -
20:35 22,4 19,6 12,9 East 16,1 1009,7 84 -
20:40 22,3 19,4 12,9 East 19,3 1009,7 84 -
20:45 22,1 19,4 12,9 East 19,3 1009,7 85 -
20:50 21,9 19,3 12,9 East 16,1 1009,7 85 -
20:55 21,7 19,3 11,3 ENE 16,1 1010,0 86 -
21:00 21,5 19,1 12,9 ENE 16,1 1010,0 86 -
21:05 21,3 19,1 12,9 ENE 16,1 1010,0 87 -
21:10 21,2 18,9 12,9 ENE 19,3 1010,0 87 -
21:15 21,1 18,8 12,9 ENE 16,1 1010,4 87 -
21:20 20,9 18,7 14,5 ENE 19,3 1010,4 87 -
21:25 20,9 18,7 14,5 ENE 19,3 1010,4 87 -
21:30 20,8 18,6 11,3 ENE 19,3 1010,4 87 -
21:35 20,7 18,6 12,9 ENE 16,1 1010,7 88 -
21:40 20,6 18,5 12,9 ENE 16,1 1010,7 88 -
21:45 20,5 18,4 14,5 ENE 19,3 1010,7 88 -
21:50 20,4 18,4 12,9 ENE 19,3 1010,7 88 -
21:55 20,3 18,3 14,5 ENE 19,3 1011,1 88 -
22:00 20,3 18,2 11,3 ENE 19,3 1011,1 88 -
22:05 20,2 18,3 12,9 ENE 16,1 1011,1 89 -
22:10 20,1 18,2 14,5 ENE 16,1 1011,1 89 -
22:15 20,0 18,2 12,9 ENE 19,3 1011,1 89 -
22:20 20,0 18,1 12,9 ENE 19,3 1011,1 89 -
22:25 19,9 17,9 12,9 ENE 16,1 1011,1 88 -
22:30 19,9 17,8 11,3 ENE 14,5 1011,1 88 -
22:35 19,8 17,9 11,3 ENE 16,1 1011,1 89 -
22:40 19,7 17,9 11,3 ENE 16,1 1011,1 89 -
22:45 19,7 17,8 11,3 ENE 14,5 1011,1 89 -
22:50 19,6 17,7 9,7 ENE 14,5 1011,4 89 -
22:55 19,4 17,6 9,7 ENE 12,9 1011,4 89 -
23:00 19,4 17,6 4,8 East 11,3 1011,4 89 -
23:05 19,3 17,5 8,0 East 12,9 1011,4 89 -
23:10 19,3 17,4 8,0 East 12,9 1011,4 89 -
23:15 19,3 17,4 8,0 East 11,3 1011,4 89 -
23:20 19,2 17,3 4,8 East 11,3 1011,4 89 -
Daily Summary for Sunday Aug 18 2019
Time Temp. ( °C ) Dew pt. ( °C ) Wind ( km/h ) from Gust ( km/h ) Pressure ( hPa ) Humid.( % ) Rainrate ( cm )
High25,8 22,2 32,2 North ( 329/1982 ) 41,8 1011,4 93 -
Average22,5 19,1 11,4 ENE #43/281 17,4 1005,6 82 -
Low18,8 16,5 -   3,1 1000,2 71 -
Daily Tabular details for Sunday Aug 18 2019
Time Temp. ( °C ) Dew pt. ( °C ) Wind ( km/h ) from Gust ( km/h ) Pressure ( hPa ) Humid.( % ) Rainrate ( cm )
00:00 25,2 22,1 9,7 SSE 19,3 1001,9 83 -
00:05 25,1 22,0 9,7 South 12,9 1001,9 83 -
00:10 25,0 22,1 8,0 South 11,3 1001,9 84 -
00:15 25,1 22,2 4,8 South 14,5 1001,6 84 -
00:20 25,0 22,1 9,7 SSE 14,5 1001,2 84 -
00:25 24,8 21,9 3,2 SSE 12,9 1001,2 84 -
00:30 24,8 22,1   Calm 4,8 1001,2 85 -
00:35 24,8 22,1   Calm 4,8 1001,2 85 -
00:40 24,8 22,2 4,8 SSE 6,4 1000,9 85 -
00:45 24,9 22,1 11,3 South 12,9 1000,9 84 -
00:50 24,9 22,0 9,7 SSE 12,9 1000,6 84 -
00:55 24,8 22,1 8,0 SSE 12,9 1000,6 85 -
01:00 24,8 22,1 8,0 SSE 9,7 1000,2 85 -
01:05 24,7 22,1 8,0 SSE 9,7 1000,2 85 -
01:10 24,6 21,8 4,8 SSE 9,7 1000,2 85 -
01:15 24,3 21,8 8,0 SSE 12,9 1000,2 86 -
01:20 24,1 21,8 4,8 SSE 8,0 1000,2 87 -
01:25 24,0 21,7 3,2 SSE 6,4 1000,2 87 -
01:30 23,9 21,8 3,2 SSE 6,4 1000,6 88 -
01:35 23,9 21,8 4,8 SE 6,4 1000,6 88 -
01:40 23,9 22,0 4,8 SE 6,4 1000,2 89 -
01:45 23,9 21,9 4,8 SE 8,0 1000,2 89 -
01:50 23,8 21,9 3,2 SE 6,4 1000,2 89 -
01:55 23,8 21,9 4,8 SE 6,4 1000,2 89 -
02:00 23,8 21,9 4,8 SE 6,4 1000,2 89 -
02:05 23,8 21,8 4,8 SE 6,4 1000,2 89 -
02:10 23,7 21,8 3,2 SE 6,4 1000,6 89 -
02:15 23,7 21,9 9,7 SE 12,9 1000,6 90 -
02:20 23,4 21,7 4,8 SSE 12,9 1000,6 90 -
02:25 23,2 21,7 8,0 SSE 9,7 1000,9 91 -
02:30 23,1 21,7 9,7 SSE 9,7 1001,2 92 -
02:35 23,1 21,9 4,8 SSE 9,7 1001,2 93 -
02:40 23,0 21,8 1,6 SSE 6,4 1001,2 93 -
02:45 23,1 21,9 4,8 SSE 6,4 1001,6 93 -
02:50 23,1 21,8 3,2 SSE 8,0 1001,6 93 -
02:55 22,9 21,7 9,7 SSE 11,3 1002,3 93 -
03:00 22,7 21,5 9,7 South 16,1 1001,9 93 -
03:05 22,9 21,3 11,3 SSW 16,1 1001,9 91 -
03:10 23,3 21,2 9,7 SW 12,9 1001,9 88 -
03:15 23,4 20,9 11,3 WSW 20,9 1001,9 86 -
03:20 23,6 20,7 14,8 WSW 11,6 1001,9 84 -
03:25 23,6 20,5 22,5 West 25,7 1002,3 83 -
03:30 23,6 20,1 19,3 West 25,7 1001,9 81 -
03:35 23,4 20,0 19,3 West 25,7 1001,9 81 -
03:40 23,4 20,1 14,5 West 22,5 1001,9 82 -
03:45 23,2 19,9 12,9 WSW 20,9 1002,3 82 -
03:50 22,8 19,8 14,5 SSW 20,9 1002,3 83 -
03:55 22,7 19,4 12,9 SSW 19,3 1001,9 82 -
04:00 22,7 19,3 12,9 SW 19,3 1002,3 81 -
04:05 22,7 19,3 16,1 WSW 20,9 1002,3 81 -
04:10 22,7 19,2 12,9 WSW 19,3 1002,6 81 -
04:15 22,5 19,3 11,3 WSW 19,3 1002,6 82 -
04:20 22,4 19,2 11,3 WSW 16,1 1002,6 82 -
04:25 22,3 19,1 9,7 SW 16,1 1002,3 82 -
04:30 22,3 18,8 11,3 SW 16,1 1002,3 81 -
04:35 22,2 18,8 11,3 West 14,5 1002,6 81 -
04:40 22,0 18,6 11,3 West 10,9 1002,6 81 -
04:45 21,8 18,6 9,7 WNW 14,5 1002,6 82 -
04:50 21,6 18,4 3,2 WSW 11,3 1002,6 82 -
04:55 21,5 18,3 4,8 SW 8,0 1002,6 82 -
05:00 21,5 18,3 4,8 SW 8,0 1002,6 82 -
05:05 21,5 18,3 9,7 SW 9,7 1002,6 82 -
05:10 21,3 18,3 4,8 SSW 9,7 1002,6 83 -
05:15 21,2 18,2 8,0 SW 8,0 1002,9 83 -
05:20 21,1 18,1 9,7 WSW 11,3 1002,9 83 -
05:25 21,1 18,2 8,0 West 11,3 1002,9 84 -
05:30 21,2 18,6 8,0 West 11,3 1002,9 85 -
05:35 21,3 19,1 9,7 WNW 12,9 1003,3 87 -
05:40 21,4 19,4 16,1 NW 20,9 1003,3 88 -
05:45 21,3 19,3 16,1 North 25,7 1003,6 88 -
05:50 21,2 19,1 19,3 North 25,7 1003,6 88 -
05:55 20,9 18,9 16,1 North 25,7 1003,9 88 -
06:00 20,8 18,7 16,1 North 22,5 1004,3 88 -
06:05 20,7 18,7 12,9 North 22,5 1004,6 88 -
06:10 20,6 18,7 14,5 North 19,3 1004,6 89 -
06:15 20,5 18,4 24,1 NNW 29,0 1004,6 88 -
06:20 20,3 18,3 24,1 NNW 32,2 1004,3 88 -
06:25 20,2 18,1 22,5 NNW 32,2 1004,3 88 -
06:30 20,1 18,0 16,1 NNW 32,2 1005,0 88 -
06:35 19,9 17,9 8,0 NW 25,7 1005,3 88 -
06:40 19,8 17,8 14,5 NNW 20,9 1005,0 88 -
06:45 19,7 17,5 14,5 North 24,1 1005,3 87 -
06:50 19,7 17,3 11,3 NNW 19,3 1006,0 86 -
06:55 19,7 17,4 14,5 NNW 20,9 1005,6 87 -
07:00 19,6 17,4 14,5 NNW 22,5 1005,6 87 -
07:05 19,5 17,3 12,9 NW 22,5 1006,0 87 -
07:10 19,4 17,2 16,1 NW 20,9 1006,3 87 -
07:15 19,3 17,1 14,5 NW 20,9 1006,7 87 -
07:20 19,2 17,0 12,9 WNW 20,9 1007,0 87 -
07:25 19,1 16,9 14,5 WNW 20,9 1007,0 87 -
07:30 19,1 16,8 12,9 WNW 19,3 1007,3 87 -
07:35 18,9 16,7 12,9 WNW 22,5 1007,7 87 -
07:40 18,9 16,7 12,9 WNW 22,5 1007,7 87 -
07:45 18,9 16,7 14,5 WNW 20,9 1007,7 87 -
07:50 18,9 16,7 14,5 NW 20,9 1007,7 87 -
07:55 18,9 16,7 14,5 NW 22,5 1007,7 87 -
08:00 18,9 16,7 12,9 NW 22,5 1008,0 87 -
08:05 18,8 16,6 12,9 NW 22,5 1008,0 87 -
08:10 18,8 16,6 14,5 NW 22,5 1008,0 87 -
08:15 18,8 16,6 11,3 NW 22,5 1008,0 87 -
08:20 18,8 16,6 14,5 NW 20,9 1008,4 87 -
08:25 18,9 16,5 19,3 NNW 25,7 1008,0 86 -
08:30 19,1 16,7 14,5 NW 19,3 1008,7 86 -
08:35 19,1 16,6 14,5 NW 24,1 1008,7 85 -
08:40 19,3 16,7 12,9 NNW 22,5 1008,4 85 -
08:45 19,4 16,7 19,3 NNW 29,0 1008,0 84 -
08:50 19,4 16,7 16,1 NNW 24,1 1008,4 84 -
08:55 19,5 16,7 20,9 NNW 29,0 1008,4 84 -
09:00 19,6 16,8 20,9 NNW 29,0 1008,7 84 -
09:05 19,7 16,9 20,9 NNW 29,0 1009,0 84 -
09:10 19,7 16,9 24,1 NNW 32,2 1009,0 84 -
09:15 19,6 16,8 24,1 NNW 32,2 1009,0 84 -
09:20 19,7 16,9 19,3 North 29,0 1009,0 84 -
09:25 19,7 16,6 32,2 North 41,8 1009,0 82 -
09:30 19,7 16,8 20,9 North 33,8 1009,0 83 -
09:35 19,8 16,7 25,7 North 35,4 1009,0 82 -
09:40 19,8 16,7 19,3 North 35,4 1009,0 82 -
09:45 19,9 16,7 16,1 North 32,2 1009,0 82 -
09:50 20,0 16,7 25,7 NNW 33,8 1009,0 81 -
09:55 20,3 16,9 19,3 North 33,8 1009,0 81 -
10:00 20,4 17,1 16,1 NNE 27,4 1009,0 81 -
10:05 20,4 17,0 22,5 North 32,2 1009,4 81 -
10:10 20,5 16,9 22,5 North 29,0 1009,4 80 -
10:15 20,6 17,1 19,3 NNW 32,2 1009,0 80 -
10:20 20,6 17,2 16,1 NNW 25,7 1009,4 81 -
10:25 21,0 17,4 14,5 North 22,5 1009,4 80 -
10:30 21,3 17,7 14,5 NNE 22,5 1009,4 80 -
10:35 21,2 17,4 14,5 NNE 29,0 1009,4 79 -
10:40 21,2 17,2 22,5 North 29,0 1009,4 78 -
10:45 21,2 17,4 20,9 North 32,2 1009,7 79 -
10:50 21,3 17,6 20,9 North 29,0 1009,7 79 -
10:55 21,6 17,6 20,9 NNE 32,2 1009,7 78 -
11:00 21,4 17,4 20,9 North 32,2 1009,7 78 -
11:05 21,6 17,8 12,9 North 25,7 1009,7 79 -
11:10 21,7 17,7 19,3 NNE 27,4 1010,0 78 -
11:15 21,4 17,6 20,9 NNE 32,2 1010,0 79 -
11:20 21,6 17,6 20,9 NNE 27,4 1010,0 78 -
11:25 21,7 17,7 16,1 NNE 27,4 1010,0 78 -
11:30 22,0 18,2 16,1 NNE 25,7 1010,0 79 -
11:35 22,1 18,0 12,9 NNE 25,7 1010,0 78 -
11:40 21,6 17,6 16,1 NNE 22,5 1010,4 78 -
11:45 21,4 17,4 14,5 NNE 22,5 1010,4 78 -
11:50 21,6 17,6 16,1 NNE 25,7 1010,4 78 -
11:55 21,6 17,6 14,5 NNE 22,5 1010,4 78 -
12:00 22,1 18,1 14,5 NE 20,9 1010,4 78 -
12:05 22,1 18,0 16,1 NE 20,9 1010,4 78 -
12:10 22,2 18,2 16,1 ENE 22,5 1010,4 78 -
12:15 22,1 18,1 12,9 NE 22,5 1010,0 78 -
12:20 22,2 18,2 12,9 NE 19,3 1010,4 78 -
12:25 22,2 18,0 14,5 NE 19,3 1010,4 77 -
12:30 22,7 18,6 12,9 NE 19,3 1010,4 78 -
12:35 22,4 17,9 12,9 NE 24,1 1010,0 76 -
12:40 22,4 18,4 16,1 NE 22,5 1010,4 78 -
12:45 22,7 18,3 11,3 NE 20,9 1010,0 76 -
12:50 22,6 18,1 12,9 NE 19,3 1010,0 76 -
12:55 22,9 18,9 12,9 NE 19,3 1010,0 78 -
13:00 22,8 18,6 11,3 NE 19,3 1010,0 77 -
13:05 22,7 18,2 11,3 NE 19,3 1010,0 76 -
13:10 22,8 18,8 8,0 NNE 17,7 1010,0 78 -
13:15 23,2 19,2 9,7 NNE 12,9 1010,0 78 -
13:20 23,2 18,5 11,3 NE 14,5 1010,0 75 -
13:25 23,1 18,8 12,9 NNE 19,3 1010,0 77 -
13:30 23,3 19,3 8,0 NNE 19,3 1010,0 78 -
13:35 23,2 18,9 12,9 NNE 16,1 1009,7 77 -
13:40 23,2 18,9 11,3 NNE 16,1 1009,7 77 -
13:45 23,2 18,8 9,7 NE 16,1 1009,7 76 -
13:50 23,2 18,7 4,8 NE 16,1 1009,7 76 -
13:55 23,3 18,7 4,8 ENE 16,1 1009,7 75 -
14:00 23,5 19,0 4,8 NE 11,3 1009,7 76 -
14:05 23,5 19,1 12,9 NNE 16,1 1009,7 76 -
14:10 23,3 18,8 9,7 NNE 16,1 1009,7 76 -
14:15 23,7 19,2 11,3 NNE 14,5 1009,7 76 -
14:20 23,6 19,1 4,8 North 12,9 1009,7 76 -
14:25 23,8 19,3 3,2 NNW 9,7 1009,7 76 -
14:30 24,1 19,2 8,0 WNW 11,3 1010,0 74 -
14:35 23,9 19,3 3,2 NNW 9,7 1009,7 75 -
14:40 24,2 19,2 3,2 North 6,4 1010,0 74 -
14:45 24,1 19,4 8,0 NW 9,7 1010,0 75 -
14:50 24,3 19,8 3,2 WSW 8,0 1009,7 76 -
14:55 24,2 19,2 3,2 West 12,9 1009,7 74 -
15:00 24,7 19,6 11,3 WNW 14,5 1009,7 73 -
15:05 24,7 19,5 9,7 NW 16,1 1009,7 73 -
15:10 24,7 19,7 11,3 NW 16,1 1009,7 74 -
15:15 24,7 19,8 8,0 WNW 12,9 1009,7 74 -
15:20 24,9 19,6 3,2 WNW 11,3 1009,7 72 -
15:25 25,1 19,9 4,8 NNW 9,7 1009,7 73 -
15:30 24,8 19,8 4,8 North 16,1 1009,7 74 -
15:35 25,1 19,7 9,7 WNW 16,1 1009,7 72 -
15:40 25,2 20,3 4,8 West 14,5 1009,4 74 -
15:45 25,5 19,9 3,2 WNW 19,3 1009,4 71 -
15:50 25,8 20,3 9,7 WNW 16,1 1009,4 72 -
15:55 25,5 20,1 12,9 WNW 16,1 1009,4 72 -
16:00 25,7 20,4 8,0 NW 19,3 1009,4 73 -
16:05 25,6 19,9 8,0 WNW 11,3 1009,4 71 -
16:10 25,3 19,9 8,0 WNW 11,3 1009,4 72 -
16:15 25,2 20,5 8,0 NW 16,1 1009,4 75 -
16:20 25,3 20,2 3,2 NNW 11,3 1009,4 73 -
16:25 25,2 19,8 11,3 North 14,5 1009,0 72 -
16:30 25,2 20,4 8,0 NNW 14,5 1009,0 75 -
16:35 24,9 20,0 8,0 NNW 12,9 1009,0 74 -
16:40 24,9 20,2 3,2 NNW 12,9 1009,0 75 -
16:45 25,1 20,3 8,0 North 12,9 1009,0 75 -
16:50 25,4 20,4 8,0 North 12,9 1009,0 74 -
16:55 25,4 20,7 8,0 North 14,5 1009,0 75 -
17:00 25,4 20,4 11,3 North 14,5 1009,0 74 -
17:05 25,3 20,3 11,3 North 19,3 1009,0 74 -
17:10 25,2 20,1 9,7 NNE 14,5 1009,0 73 -
17:15 25,2 20,1 8,0 NNE 14,5 1009,0 73 -
17:20 25,3 20,2 8,0 North 12,9 1009,0 73 -
17:25 25,5 20,6 11,3 North 16,1 1009,0 74 -
17:30 25,4 20,7 8,0 North 16,1 1009,0 75 -
17:35 25,4 20,3 8,0 North 12,9 1009,0 73 -
17:40 25,7 20,7 8,0 NNW 11,3 1009,0 74 -
17:45 25,8 20,6 6,4 NNW 3,1 1009,0 73 -
17:50 25,6 20,4 4,8 NNW 9,7 1009,0 73 -
17:55 25,7 20,4 3,2 North 9,7 1009,0 73 -
18:00 25,4 20,3 4,8 NNE 11,3 1009,0 73 -
18:05 25,3 20,4 3,2 NE 11,3 1009,0 74 -
18:10 25,4 20,7 4,8 NNE 9,7 1009,0 75 -
18:15 25,5 20,6 3,2 NNE 8,0 1009,0 74 -
18:20 25,5 20,7 8,0 NE 9,7 1009,0 75 -
18:25 25,4 20,2 9,7 ENE 12,9 1009,0 73 -
18:30 25,4 20,2 9,7 ENE 12,9 1009,0 73 -
18:35 25,3 20,6 4,8 ENE 11,3 1008,7 75 -
18:40 25,3 20,1 8,0 NE 9,7 1009,0 73 -
18:45 25,3 20,3 3,2 NE 9,7 1009,0 74 -
18:50 25,3 20,2 4,8 NE 8,0 1009,0 73 -
18:55 25,3 20,3 8,0 NE 9,7 1009,0 74 -
19:00 25,2 20,5 8,0 NE 9,7 1009,0 75 -
19:05 25,2 20,6 9,7 NE 12,9 1009,0 76 -
19:10 25,1 20,6 11,1 ENE 8,4 1009,0 76 -
19:15 24,9 20,7 4,8 ENE 12,9 1009,0 77 -
19:20 24,9 20,6 8,0 ENE 11,3 1009,0 77 -
19:25 24,8 20,3 8,0 ENE 14,5 1009,0 76 -
19:30 24,7 20,3 11,3 ENE 14,5 1009,0 77 -
19:35 24,6 20,2 9,7 ENE 12,9 1009,0 77 -
19:40 24,3 20,5 11,3 ENE 14,5 1009,0 79 -
19:45 24,1 20,4 9,7 ENE 16,1 1009,0 80 -
19:50 23,8 20,2 11,3 ENE 14,5 1009,0 80 -
19:55 23,6 20,0 12,9 ENE 16,1 1009,4 80 -
20:01 23,4 19,9 16,7 East 13,4 1009,4 81 -
20:05 23,3 19,8 9,7 ENE 16,1 1009,4 81 -
20:10 23,1 19,8 11,3 ENE 12,9 1009,4 82 -
20:15 22,9 19,9 11,3 ENE 14,5 1009,4 83 -
20:20 22,8 19,7 11,3 East 19,3 1009,4 83 -
20:25 22,7 19,7 12,9 East 16,1 1009,4 83 -
20:30 22,6 19,6 12,9 East 16,1 1009,4 83 -
20:35 22,4 19,6 12,9 East 16,1 1009,7 84 -
20:40 22,3 19,4 12,9 East 19,3 1009,7 84 -
20:45 22,1 19,4 12,9 East 19,3 1009,7 85 -
20:50 21,9 19,3 12,9 East 16,1 1009,7 85 -
20:55 21,7 19,3 11,3 ENE 16,1 1010,0 86 -
21:00 21,5 19,1 12,9 ENE 16,1 1010,0 86 -
21:05 21,3 19,1 12,9 ENE 16,1 1010,0 87 -
21:10 21,2 18,9 12,9 ENE 19,3 1010,0 87 -
21:15 21,1 18,8 12,9 ENE 16,1 1010,4 87 -
21:20 20,9 18,7 14,5 ENE 19,3 1010,4 87 -
21:25 20,9 18,7 14,5 ENE 19,3 1010,4 87 -
21:30 20,8 18,6 11,3 ENE 19,3 1010,4 87 -
21:35 20,7 18,6 12,9 ENE 16,1 1010,7 88 -
21:40 20,6 18,5 12,9 ENE 16,1 1010,7 88 -
21:45 20,5 18,4 14,5 ENE 19,3 1010,7 88 -
21:50 20,4 18,4 12,9 ENE 19,3 1010,7 88 -
21:55 20,3 18,3 14,5 ENE 19,3 1011,1 88 -
22:00 20,3 18,2 11,3 ENE 19,3 1011,1 88 -
22:05 20,2 18,3 12,9 ENE 16,1 1011,1 89 -
22:10 20,1 18,2 14,5 ENE 16,1 1011,1 89 -
22:15 20,0 18,2 12,9 ENE 19,3 1011,1 89 -
22:20 20,0 18,1 12,9 ENE 19,3 1011,1 89 -
22:25 19,9 17,9 12,9 ENE 16,1 1011,1 88 -
22:30 19,9 17,8 11,3 ENE 14,5 1011,1 88 -
22:35 19,8 17,9 11,3 ENE 16,1 1011,1 89 -
22:40 19,7 17,9 11,3 ENE 16,1 1011,1 89 -
22:45 19,7 17,8 11,3 ENE 14,5 1011,1 89 -
22:50 19,6 17,7 9,7 ENE 14,5 1011,4 89 -
22:55 19,4 17,6 9,7 ENE 12,9 1011,4 89 -
23:00 19,4 17,6 4,8 East 11,3 1011,4 89 -
23:05 19,3 17,5 8,0 East 12,9 1011,4 89 -
23:10 19,3 17,4 8,0 East 12,9 1011,4 89 -
23:15 19,3 17,4 8,0 East 11,3 1011,4 89 -
23:20 19,2 17,3 4,8 East 11,3 1011,4 89 -

Download your copy of this data-set  here

Our weather-data as stored at Weather Underground. Script developed by Jim McMurry. Adapted for the template by Leuven-Template.eu